Le Boreal — FLSY — position and weather

sailwx.info

Track history (hours):
 
Tides and Currents Weather Stations Pressure Air Temp Water Temp Dewpoint Dewpoint Depression Visibility Wind Speed Wind Dir Waves Ship Positions

Le Boreal

Last reported at 2016-Aug-25 01:28 UTC. Time now 2016-Aug-31 23:34 UTC.
Position N 64°60' W 053°07'.

Length 140 m; draft 4.8 m.

Type: Passenger vessel. MMSI: 578000500.

Date/timePositionNaut miles runAvg speedWind from/ knotsBaromVisibWave heightAir tempDewpointWater temp
2016-Aug-25 01:28N 64°60' W 053°07'9 9.8
2016-Aug-25 00:33N 64°51' W 053°00'1010.1
2016-Aug-24 23:33N 64°42' W 052°53'1010.3
2016-Aug-24 22:33N 64°32' W 052°46'1010.4
2016-Aug-24 21:33N 64°22' W 052°38'1110.5
2016-Aug-24 20:33N 64°12' W 052°31'1010.3
2016-Aug-24 19:33N 64°04' W 052°17'1212.1
2016-Aug-24 18:34N 64°08' W 051°51'4 3.7
2016-Aug-24 17:31N 64°10' W 051°43'0 0.0
2016-Aug-24 16:31N 64°10' W 051°43'0 0.0
2016-Aug-24 15:31N 64°10' W 051°43'0 0.0
2016-Aug-24 14:28N 64°10' W 051°43'0 0.0
2016-Aug-24 13:28N 64°10' W 051°43'0 0.0
2016-Aug-24 12:31N 64°10' W 051°43'0 0.0
2016-Aug-24 11:31N 64°10' W 051°43'0 0.0
2016-Aug-24 10:31N 64°10' W 051°43'5 5.3
2016-Aug-24 09:33N 64°08' W 051°53'1313.1
2016-Aug-24 08:33N 64°01' W 052°19'1313.4
2016-Aug-24 07:33N 63°47' W 052°18'1313.1
2016-Aug-24 06:33N 63°34' W 052°16'  
2016-Aug-15 12:28N 65°10' W 023°48'  
Track history (hours):
 
Tides and Currents Weather Stations Pressure Air Temp Water Temp Dewpoint Dewpoint Depression Visibility Wind Speed Wind Dir Waves Ship Positions

Le Boreal

Last reported at 2016-Aug-25 01:28 UTC. Time now 2016-Aug-31 23:34 UTC.
Position N 64°60' W 053°07'.

Length 140 m; draft 4.8 m.

Type: Passenger vessel. MMSI: 578000500.

Date/timePositionNaut miles runAvg speedWind from/ knotsBaromVisibWave heightAir tempDewpointWater temp
2016-Aug-25 01:28N 64°60' W 053°07'9 9.8
2016-Aug-25 00:33N 64°51' W 053°00'1010.1
2016-Aug-24 23:33N 64°42' W 052°53'1010.3
2016-Aug-24 22:33N 64°32' W 052°46'1010.4
2016-Aug-24 21:33N 64°22' W 052°38'1110.5
2016-Aug-24 20:33N 64°12' W 052°31'1010.3
2016-Aug-24 19:33N 64°04' W 052°17'1212.1
2016-Aug-24 18:34N 64°08' W 051°51'4 3.7
2016-Aug-24 17:31N 64°10' W 051°43'0 0.0
2016-Aug-24 16:31N 64°10' W 051°43'0 0.0
2016-Aug-24 15:31N 64°10' W 051°43'0 0.0
2016-Aug-24 14:28N 64°10' W 051°43'0 0.0
2016-Aug-24 13:28N 64°10' W 051°43'0 0.0
2016-Aug-24 12:31N 64°10' W 051°43'0 0.0
2016-Aug-24 11:31N 64°10' W 051°43'0 0.0
2016-Aug-24 10:31N 64°10' W 051°43'5 5.3
2016-Aug-24 09:33N 64°08' W 051°53'1313.1
2016-Aug-24 08:33N 64°01' W 052°19'1313.4
2016-Aug-24 07:33N 63°47' W 052°18'1313.1
2016-Aug-24 06:33N 63°34' W 052°16'  
2016-Aug-15 12:28N 65°10' W 023°48'  

Dump ship's entire track history